Time;durP1;ratioP1;P1;durP2;ratioP2;P2;SDS_P1;SDS_P2;PMS_P1;PMS_P2;Temp;Humidity;BMP_temperature;BMP_pressure;BME280_temperature;BME280_humidity;BME280_pressure;Samples;Min_cycle;Max_cycle;Signal;HPM_P1;HPM_P2
2024/01/07 00:01:57;;;;;;;75.43;31.87;;;2.80;99.90;;;;;;5051307;28;20167;-73
2024/01/07 00:04:23;;;;;;;55.53;28.27;;;2.80;99.90;;;;;;5051032;28;20665;-73
2024/01/07 00:06:49;;;;;;;72.43;31.17;;;3.00;99.90;;;;;;5051164;28;20610;-73
2024/01/07 00:09:16;;;;;;;63.97;30.40;;;2.80;99.90;;;;;;5050097;28;20174;-73
2024/01/07 00:11:42;;;;;;;68.60;30.03;;;2.70;99.90;;;;;;5051174;28;20163;-73
2024/01/07 00:14:07;;;;;;;73.70;32.73;;;2.80;99.90;;;;;;5037220;28;20280;-73
2024/01/07 00:16:33;;;;;;;74.27;31.27;;;2.70;99.90;;;;;;5031077;28;20203;-73
2024/01/07 00:18:59;;;;;;;69.00;29.50;;;2.70;99.90;;;;;;5045395;28;20206;-74
2024/01/07 00:21:25;;;;;;;73.43;31.63;;;2.70;99.90;;;;;;5051379;28;20632;-73
2024/01/07 00:23:50;;;;;;;70.67;30.23;;;2.70;99.90;;;;;;5050740;28;20221;-73
2024/01/07 00:26:16;;;;;;;69.80;31.37;;;2.60;99.90;;;;;;5050689;28;20210;-73
2024/01/07 00:28:41;;;;;;;71.17;32.37;;;2.80;99.90;;;;;;5051117;28;20662;-72
2024/01/07 00:31:08;;;;;;;75.07;30.70;;;2.80;99.90;;;;;;5050976;28;20166;-73
2024/01/07 00:33:35;;;;;;;64.57;27.17;;;2.80;99.90;;;;;;5051052;28;20669;-73
2024/01/07 00:36:01;;;;;;;67.53;29.97;;;2.80;99.90;;;;;;5051131;28;20167;-73
2024/01/07 00:38:27;;;;;;;57.57;27.80;;;2.90;99.90;;;;;;5050711;28;20198;-73
2024/01/07 00:40:53;;;;;;;59.50;26.47;;;2.80;99.90;;;;;;5051179;28;20665;-72
2024/01/07 00:43:18;;;;;;;55.20;26.80;;;2.90;99.90;;;;;;5050762;28;20250;-73
2024/01/07 00:45:44;;;;;;;57.63;26.67;;;2.80;99.90;;;;;;5051119;28;20612;-72
2024/01/07 00:48:10;;;;;;;58.47;27.47;;;2.80;99.90;;;;;;5054525;28;20671;-72
2024/01/07 00:50:35;;;;;;;70.07;26.60;;;2.80;99.90;;;;;;5054574;28;20296;-72
2024/01/07 00:53:01;;;;;;;56.43;26.33;;;3.00;99.90;;;;;;5054224;28;20178;-72
2024/01/07 00:55:27;;;;;;;56.07;26.60;;;2.90;99.90;;;;;;5053891;28;20667;-72
2024/01/07 00:57:52;;;;;;;58.57;25.97;;;3.00;99.90;;;;;;5053926;28;20222;-72
2024/01/07 01:00:18;;;;;;;52.57;26.50;;;3.00;99.90;;;;;;5054343;28;20258;-72
2024/01/07 01:02:44;;;;;;;61.83;26.43;;;2.90;99.90;;;;;;5054011;28;20189;-72
2024/01/07 01:05:10;;;;;;;60.30;25.67;;;2.90;99.90;;;;;;5054011;28;20256;-72
2024/01/07 01:07:36;;;;;;;61.00;25.33;;;3.00;99.90;;;;;;5053702;28;20717;-73
2024/01/07 01:10:01;;;;;;;57.73;24.00;;;3.00;99.90;;;;;;5054003;28;20253;-72
2024/01/07 01:12:27;;;;;;;50.83;25.37;;;3.10;99.90;;;;;;5054085;28;20167;-72
2024/01/07 01:14:52;;;;;;;53.17;25.87;;;3.00;99.90;;;;;;5053743;28;20545;-72
2024/01/07 01:17:18;;;;;;;51.73;24.53;;;3.10;99.90;;;;;;5053363;28;20198;-72
2024/01/07 01:19:43;;;;;;;53.17;24.37;;;3.00;99.90;;;;;;5053614;28;20725;-72
2024/01/07 01:22:09;;;;;;;46.83;23.73;;;3.10;99.90;;;;;;5054426;28;20175;-71
2024/01/07 01:24:35;;;;;;;46.67;22.43;;;2.90;99.90;;;;;;5053269;28;20774;-72
2024/01/07 01:27:00;;;;;;;38.40;21.23;;;3.00;99.90;;;;;;5053477;28;20239;-72
2024/01/07 01:29:26;;;;;;;42.37;21.47;;;3.00;99.90;;;;;;5053488;28;20178;-72
2024/01/07 01:31:53;;;;;;;39.77;21.23;;;3.00;99.90;;;;;;5053063;28;20199;-72
2024/01/07 01:34:18;;;;;;;42.00;20.87;;;2.90;99.90;;;;;;5053344;28;20700;-73
2024/01/07 01:36:44;;;;;;;35.13;18.67;;;2.90;99.90;;;;;;5052755;28;20182;-73
2024/01/07 01:39:09;;;;;;;37.40;20.07;;;2.80;99.90;;;;;;5053302;28;20179;-73
2024/01/07 01:41:35;;;;;;;34.60;19.43;;;2.90;99.90;;;;;;5053134;28;20265;-73
2024/01/07 01:44:01;;;;;;;37.50;20.23;;;2.80;99.90;;;;;;5053047;28;20171;-73
2024/01/07 01:46:29;;;;;;;41.30;19.33;;;2.80;99.90;;;;;;5052888;28;20189;-73
2024/01/07 01:48:55;;;;;;;37.97;20.67;;;2.80;99.90;;;;;;5053121;28;20206;-73
2024/01/07 01:51:21;;;;;;;36.23;19.80;;;3.00;99.90;;;;;;5053007;28;20178;-73
2024/01/07 01:53:48;;;;;;;39.40;21.10;;;2.80;99.90;;;;;;5052789;28;20718;-73
2024/01/07 01:56:16;;;;;;;32.97;19.97;;;2.90;99.90;;;;;;5051721;28;20187;-73
2024/01/07 01:58:42;;;;;;;33.97;19.37;;;2.90;99.90;;;;;;5052595;28;20226;-73
2024/01/07 02:01:08;;;;;;;37.23;19.57;;;2.90;99.90;;;;;;5053027;28;20178;-72
2024/01/07 02:03:33;;;;;;;36.03;20.30;;;3.00;99.90;;;;;;5052988;28;20179;-72
2024/01/07 02:05:59;;;;;;;34.63;20.53;;;2.80;99.90;;;;;;5052546;28;20241;-72
2024/01/07 02:08:25;;;;;;;34.73;19.93;;;2.90;99.90;;;;;;5052520;28;20591;-73
2024/01/07 02:10:51;;;;;;;28.33;18.90;;;2.90;99.90;;;;;;5052787;28;20171;-72
2024/01/07 02:13:17;;;;;;;28.37;19.40;;;2.90;99.90;;;;;;5052769;28;20178;-73
2024/01/07 02:15:43;;;;;;;31.77;18.80;;;2.90;99.90;;;;;;5052368;28;20225;-72
2024/01/07 02:18:09;;;;;;;35.13;18.07;;;2.90;99.90;;;;;;5052610;28;20289;-72
2024/01/07 02:20:35;;;;;;;36.10;19.33;;;2.80;99.90;;;;;;5052964;28;20182;-72
2024/01/07 02:23:02;;;;;;;36.90;20.83;;;2.90;99.90;;;;;;5052813;28;20564;-72
2024/01/07 02:25:27;;;;;;;40.87;20.90;;;2.90;99.90;;;;;;5052946;28;20214;-72
2024/01/07 02:27:53;;;;;;;44.53;22.03;;;2.90;99.90;;;;;;5052299;28;20278;-73
2024/01/07 02:30:18;;;;;;;37.93;20.93;;;2.70;99.90;;;;;;5052056;28;20543;-72
2024/01/07 02:32:44;;;;;;;42.33;21.33;;;2.70;99.90;;;;;;5051161;28;20171;-71
2024/01/07 02:35:09;;;;;;;40.37;22.17;;;2.80;99.90;;;;;;5052245;28;20251;-71
2024/01/07 02:37:35;;;;;;;41.43;21.97;;;2.90;99.90;;;;;;5051782;28;20240;-72
2024/01/07 02:40:01;;;;;;;38.43;21.17;;;2.80;99.90;;;;;;5052340;28;20179;-71
2024/01/07 02:42:26;;;;;;;42.97;20.50;;;2.80;99.90;;;;;;5052280;28;20546;-73
2024/01/07 02:44:52;;;;;;;41.47;22.37;;;2.80;99.90;;;;;;5052238;28;20210;-72
2024/01/07 02:47:18;;;;;;;40.07;22.03;;;2.80;99.90;;;;;;5051819;28;20199;-72
2024/01/07 02:49:43;;;;;;;39.13;21.00;;;2.90;99.90;;;;;;5051825;28;20281;-72
2024/01/07 02:52:09;;;;;;;43.23;22.43;;;2.90;99.90;;;;;;5051640;28;20186;-72
2024/01/07 02:54:34;;;;;;;41.37;21.63;;;3.00;99.90;;;;;;5051723;28;20309;-72
2024/01/07 02:57:00;;;;;;;40.70;23.03;;;2.80;99.90;;;;;;5051827;28;20199;-72
2024/01/07 02:59:25;;;;;;;39.60;20.73;;;2.90;99.90;;;;;;5051676;28;20190;-72
2024/01/07 03:01:51;;;;;;;41.20;21.20;;;2.80;99.90;;;;;;5051461;28;20213;-72
2024/01/07 03:04:17;;;;;;;45.10;22.43;;;2.70;99.90;;;;;;5051216;28;20208;-72
2024/01/07 03:06:42;;;;;;;43.27;22.23;;;2.80;99.90;;;;;;5051592;28;20182;-72
2024/01/07 03:09:10;;;;;;;38.83;22.27;;;2.70;99.90;;;;;;5051259;28;20167;-72
2024/01/07 03:11:40;;;;;;;39.63;22.50;;;2.80;99.90;;;;;;5051710;28;20205;-72
2024/01/07 03:14:06;;;;;;;38.80;20.47;;;2.80;99.90;;;;;;5051738;28;20182;-72
2024/01/07 03:16:32;;;;;;;38.93;20.63;;;2.80;99.90;;;;;;5051569;28;20228;-73
2024/01/07 03:18:57;;;;;;;38.57;21.40;;;2.90;99.90;;;;;;5051633;28;20209;-73
2024/01/07 03:21:23;;;;;;;34.03;20.57;;;2.80;99.90;;;;;;5034024;28;20198;-72
2024/01/07 03:23:50;;;;;;;39.27;21.73;;;2.90;99.90;;;;;;5051855;28;20205;-73
2024/01/07 03:26:17;;;;;;;35.20;19.23;;;2.90;99.90;;;;;;5051867;28;20547;-72
2024/01/07 03:28:44;;;;;;;35.07;21.20;;;2.80;99.90;;;;;;5051729;28;20482;-73
2024/01/07 03:31:12;;;;;;;35.10;20.17;;;2.90;99.90;;;;;;5051829;28;20784;-72
2024/01/07 03:33:39;;;;;;;34.37;20.53;;;2.90;99.90;;;;;;5051647;28;20178;-73
2024/01/07 03:36:08;;;;;;;36.03;20.90;;;2.90;99.90;;;;;;5051510;28;20652;-73
2024/01/07 03:38:35;;;;;;;37.47;21.73;;;3.00;99.90;;;;;;5051333;28;20620;-73
2024/01/07 03:41:00;;;;;;;38.03;22.50;;;2.80;99.90;;;;;;5041388;28;20183;-73
2024/01/07 03:43:26;;;;;;;35.47;21.20;;;2.80;99.90;;;;;;5051556;28;20552;-74
2024/01/07 03:45:51;;;;;;;41.57;21.90;;;2.70;99.90;;;;;;5051292;28;20209;-73
2024/01/07 03:48:17;;;;;;;43.30;23.53;;;2.80;99.90;;;;;;5051574;28;20209;-73
2024/01/07 03:50:43;;;;;;;41.50;24.07;;;2.80;99.90;;;;;;5051701;28;20232;-73
2024/01/07 03:53:09;;;;;;;48.50;23.50;;;2.60;99.90;;;;;;5051204;28;20200;-74
2024/01/07 03:55:34;;;;;;;35.57;21.43;;;2.60;99.90;;;;;;5051277;28;20177;-72
2024/01/07 03:58:00;;;;;;;48.07;22.93;;;2.60;99.90;;;;;;5051252;28;20194;-72
2024/01/07 04:00:25;;;;;;;39.00;22.00;;;2.60;99.90;;;;;;5051391;28;20179;-72
2024/01/07 04:02:51;;;;;;;40.07;21.57;;;2.70;99.90;;;;;;5050981;28;20178;-72
2024/01/07 04:05:17;;;;;;;39.07;20.37;;;2.60;99.90;;;;;;5051005;28;20206;-73
2024/01/07 04:07:42;;;;;;;36.23;22.00;;;2.60;99.90;;;;;;5051254;28;20186;-72
2024/01/07 04:10:08;;;;;;;39.73;20.67;;;2.60;99.90;;;;;;5051145;28;20213;-73
2024/01/07 04:12:34;;;;;;;39.07;21.80;;;2.60;99.90;;;;;;5050947;28;20178;-72
2024/01/07 04:14:59;;;;;;;46.33;22.67;;;2.70;99.90;;;;;;5051438;28;20186;-72
2024/01/07 04:17:25;;;;;;;48.30;23.13;;;2.70;99.90;;;;;;5051079;28;20198;-72
2024/01/07 04:19:52;;;;;;;43.40;23.27;;;2.70;99.90;;;;;;5052090;28;20178;-72
2024/01/07 04:22:17;;;;;;;41.57;22.97;;;2.60;99.90;;;;;;5054849;28;20241;-73
2024/01/07 04:24:43;;;;;;;36.80;21.97;;;2.60;99.90;;;;;;5054900;28;20190;-73
2024/01/07 04:27:09;;;;;;;43.00;22.67;;;2.60;99.90;;;;;;5054939;28;20677;-73
2024/01/07 04:29:35;;;;;;;40.40;22.63;;;2.50;99.90;;;;;;5054800;28;20250;-72
2024/01/07 04:32:00;;;;;;;38.20;22.70;;;2.50;99.90;;;;;;5054802;28;20206;-72
2024/01/07 04:34:26;;;;;;;34.27;19.53;;;2.60;99.90;;;;;;5054523;28;20214;-72
2024/01/07 04:36:52;;;;;;;35.80;20.30;;;2.50;99.90;;;;;;5054509;28;20190;-72
2024/01/07 04:39:17;;;;;;;38.30;21.27;;;2.50;99.90;;;;;;5054684;28;20525;-72
2024/01/07 04:41:43;;;;;;;31.90;21.73;;;2.60;99.90;;;;;;5054513;28;20182;-72
2024/01/07 04:44:09;;;;;;;38.97;21.53;;;2.60;99.90;;;;;;5054474;28;20194;-72
2024/01/07 04:46:37;;;;;;;36.53;21.37;;;2.50;99.90;;;;;;5054439;28;20202;-72
2024/01/07 04:49:03;;;;;;;35.17;21.87;;;2.50;99.90;;;;;;5054671;28;20742;-73
2024/01/07 04:51:28;;;;;;;40.40;23.10;;;2.60;99.90;;;;;;5054379;28;20259;-73
2024/01/07 04:53:54;;;;;;;36.27;21.57;;;2.70;99.90;;;;;;5054548;28;20567;-73
2024/01/07 04:56:20;;;;;;;39.30;23.70;;;2.70;99.90;;;;;;5054236;28;20194;-73
2024/01/07 04:58:45;;;;;;;39.07;22.60;;;2.60;99.90;;;;;;5054112;28;20205;-73
2024/01/07 05:01:11;;;;;;;32.00;21.07;;;2.70;99.90;;;;;;5054162;28;20692;-73
2024/01/07 05:03:37;;;;;;;39.17;20.80;;;2.70;99.90;;;;;;5053994;28;20186;-73
2024/01/07 05:06:04;;;;;;;39.83;21.63;;;2.70;99.90;;;;;;5054165;28;20373;-73
2024/01/07 05:08:29;;;;;;;35.40;22.67;;;2.70;99.90;;;;;;5054269;28;20210;-73
2024/01/07 05:10:56;;;;;;;40.57;22.63;;;2.60;99.90;;;;;;5054066;28;20225;-73
2024/01/07 05:13:22;;;;;;;44.87;24.20;;;2.60;99.90;;;;;;5053908;28;20171;-72
2024/01/07 05:15:53;;;;;;;38.43;24.10;;;2.70;99.90;;;;;;5053876;28;20185;-72
2024/01/07 05:18:23;;;;;;;36.77;21.93;;;2.60;99.90;;;;;;5053588;28;20206;-73
2024/01/07 05:20:49;;;;;;;38.97;23.30;;;2.50;99.90;;;;;;5053723;28;20183;-74
2024/01/07 05:23:15;;;;;;;50.87;24.57;;;2.50;99.90;;;;;;5053850;28;20181;-72
2024/01/07 05:25:42;;;;;;;47.50;24.50;;;2.40;99.90;;;;;;5053623;28;20621;-72
2024/01/07 05:28:08;;;;;;;59.90;25.10;;;2.40;99.90;;;;;;5053756;28;20187;-73
2024/01/07 05:30:33;;;;;;;42.53;25.43;;;2.20;99.90;;;;;;5053985;28;20684;-72
2024/01/07 05:32:59;;;;;;;45.00;23.83;;;2.20;99.90;;;;;;5052745;28;20254;-73
2024/01/07 05:35:25;;;;;;;43.47;25.70;;;2.30;99.90;;;;;;5053672;28;20182;-72
2024/01/07 05:37:50;;;;;;;44.30;24.50;;;2.30;99.90;;;;;;5053713;28;20198;-73
2024/01/07 05:40:16;;;;;;;46.27;26.57;;;2.10;99.90;;;;;;5053425;28;20668;-73
2024/01/07 05:42:41;;;;;;;36.93;21.83;;;2.20;99.90;;;;;;5053309;28;20175;-73
2024/01/07 05:45:07;;;;;;;46.90;25.83;;;2.20;99.90;;;;;;5053445;28;20186;-72
2024/01/07 05:47:33;;;;;;;44.37;25.10;;;2.20;99.90;;;;;;5053265;28;20187;-72
2024/01/07 05:49:59;;;;;;;44.60;25.00;;;2.20;99.90;;;;;;5053246;28;20182;-73
2024/01/07 05:52:24;;;;;;;40.53;25.60;;;2.20;99.90;;;;;;5053250;28;20167;-73
2024/01/07 05:54:50;;;;;;;46.70;26.07;;;2.20;99.90;;;;;;5052948;28;20179;-72
2024/01/07 05:57:16;;;;;;;50.57;27.67;;;2.10;99.90;;;;;;5053036;28;20256;-72
2024/01/07 05:59:43;;;;;;;47.60;26.87;;;2.10;99.90;;;;;;5053004;28;20182;-72
2024/01/07 06:02:09;;;;;;;48.00;27.40;;;2.10;99.90;;;;;;5052934;28;20166;-72
2024/01/07 06:04:34;;;;;;;47.73;28.00;;;2.00;99.90;;;;;;5052755;28;20248;-72
2024/01/07 06:07:00;;;;;;;49.83;28.53;;;2.10;99.90;;;;;;5052945;28;20191;-73
2024/01/07 06:09:25;;;;;;;48.97;27.67;;;2.20;99.90;;;;;;5052856;28;20194;-72
2024/01/07 06:11:51;;;;;;;49.27;28.33;;;2.20;99.90;;;;;;5052951;28;20249;-73
2024/01/07 06:14:16;;;;;;;49.20;29.07;;;2.10;99.90;;;;;;5052665;28;20189;-72
2024/01/07 06:16:42;;;;;;;52.80;28.63;;;2.20;99.90;;;;;;5052499;28;20233;-72
2024/01/07 06:19:08;;;;;;;54.23;29.67;;;2.20;99.90;;;;;;5052610;28;20186;-73
2024/01/07 06:21:33;;;;;;;50.13;28.93;;;2.30;99.90;;;;;;5052724;28;20178;-73
2024/01/07 06:23:59;;;;;;;55.17;30.87;;;2.20;99.90;;;;;;5052580;28;20628;-73
2024/01/07 06:26:24;;;;;;;57.10;29.40;;;2.10;99.90;;;;;;5052489;28;20228;-73
2024/01/07 06:28:50;;;;;;;53.67;29.00;;;2.00;99.90;;;;;;5052439;28;20252;-72
2024/01/07 06:31:16;;;;;;;50.97;28.83;;;2.10;99.90;;;;;;5052581;28;20178;-72
2024/01/07 06:33:42;;;;;;;48.93;28.27;;;2.10;99.90;;;;;;5052352;28;20163;-72
2024/01/07 06:36:08;;;;;;;55.37;28.83;;;2.00;99.90;;;;;;5052430;28;20307;-72
2024/01/07 06:38:34;;;;;;;54.83;30.47;;;2.00;99.90;;;;;;5052416;28;20273;-72
2024/01/07 06:41:03;;;;;;;52.57;30.47;;;2.10;99.90;;;;;;5052443;28;20194;-72
2024/01/07 06:43:29;;;;;;;59.27;32.63;;;2.10;99.90;;;;;;5050983;28;20166;-72
2024/01/07 06:45:55;;;;;;;51.90;29.10;;;2.00;99.90;;;;;;5052028;28;20229;-72
2024/01/07 06:48:20;;;;;;;53.57;30.10;;;2.00;99.90;;;;;;5052195;28;20269;-73
2024/01/07 06:50:46;;;;;;;47.47;30.57;;;1.90;99.90;;;;;;5054185;28;20189;-72
2024/01/07 06:53:11;;;;;;;55.17;30.27;;;1.90;99.90;;;;;;5054682;28;20171;-72
2024/01/07 06:55:37;;;;;;;40.87;25.20;;;1.90;99.90;;;;;;5051992;28;20230;-73
2024/01/07 06:58:03;;;;;;;43.27;25.93;;;1.90;99.90;;;;;;5051598;28;20197;-72
2024/01/07 07:00:28;;;;;;;42.20;24.60;;;1.70;99.90;;;;;;5051864;28;20189;-72
2024/01/07 07:02:54;;;;;;;34.77;26.00;;;1.70;99.90;;;;;;5051254;28;20167;-72
2024/01/07 07:05:20;;;;;;;41.97;25.43;;;1.60;99.90;;;;;;5051545;28;20277;-72
2024/01/07 07:07:45;;;;;;;43.17;25.40;;;1.60;99.90;;;;;;5051347;28;20191;-72
2024/01/07 07:10:11;;;;;;;38.93;23.50;;;1.60;99.90;;;;;;5051846;28;20179;-72
2024/01/07 07:12:36;;;;;;;45.03;25.20;;;1.50;99.90;;;;;;5050205;28;20552;-72
2024/01/07 07:15:02;;;;;;;42.37;24.87;;;1.50;99.90;;;;;;5051446;28;20225;-73
2024/01/07 07:17:28;;;;;;;53.23;27.50;;;1.60;99.90;;;;;;5051027;28;20197;-72
2024/01/07 07:19:53;;;;;;;46.63;27.13;;;1.60;99.90;;;;;;5051220;28;20653;-73
2024/01/07 07:22:19;;;;;;;42.37;27.47;;;1.60;99.90;;;;;;5051416;28;20171;-72
2024/01/07 07:24:45;;;;;;;50.20;29.20;;;1.70;99.90;;;;;;5050626;28;20697;-72
2024/01/07 07:27:10;;;;;;;49.97;28.73;;;1.70;99.90;;;;;;5051159;28;20197;-73
2024/01/07 07:29:36;;;;;;;44.17;26.30;;;1.70;99.90;;;;;;5051078;28;20171;-73
2024/01/07 07:32:01;;;;;;;42.17;25.77;;;1.70;99.90;;;;;;5051078;28;20630;-73
2024/01/07 07:34:27;;;;;;;44.97;26.70;;;1.80;99.90;;;;;;5051536;28;20586;-73
2024/01/07 07:36:52;;;;;;;46.40;26.60;;;1.70;99.90;;;;;;5050362;28;20210;-73
2024/01/07 07:39:18;;;;;;;45.87;26.80;;;1.70;99.90;;;;;;5050973;28;20173;-73
2024/01/07 07:41:44;;;;;;;40.00;25.53;;;1.80;99.90;;;;;;5050992;28;20193;-73
2024/01/07 07:44:09;;;;;;;42.60;24.13;;;1.80;99.90;;;;;;5050864;28;20178;-73
2024/01/07 07:46:35;;;;;;;38.30;23.63;;;1.70;99.90;;;;;;5050526;28;20250;-73
2024/01/07 07:49:03;;;;;;;38.43;23.40;;;1.70;99.90;;;;;;5050878;28;20186;-73
2024/01/07 07:51:30;;;;;;;36.37;22.90;;;1.70;99.90;;;;;;5049195;28;20170;-73
2024/01/07 07:53:55;;;;;;;48.23;23.80;;;1.60;99.90;;;;;;5050482;28;20166;-73
2024/01/07 07:56:21;;;;;;;41.53;23.93;;;1.60;99.90;;;;;;5049862;28;20190;-73
2024/01/07 07:58:47;;;;;;;38.60;23.23;;;1.60;99.90;;;;;;5050488;28;20199;-73
2024/01/07 08:01:12;;;;;;;34.30;23.23;;;1.60;99.90;;;;;;5050896;28;20304;-73
2024/01/07 08:03:38;;;;;;;40.37;24.20;;;1.60;99.90;;;;;;5050467;28;20180;-73
2024/01/07 08:06:04;;;;;;;36.07;24.17;;;1.60;99.90;;;;;;5050766;28;20194;-73
2024/01/07 08:08:29;;;;;;;33.83;23.17;;;1.60;99.90;;;;;;5050415;28;20222;-73
2024/01/07 08:10:55;;;;;;;47.93;26.80;;;1.60;99.90;;;;;;5033415;28;20248;-73
2024/01/07 08:13:20;;;;;;;42.97;24.77;;;1.60;99.90;;;;;;5053415;28;20202;-73
2024/01/07 08:15:47;;;;;;;36.63;23.20;;;1.60;99.90;;;;;;5053717;28;20186;-73
2024/01/07 08:18:13;;;;;;;41.87;27.50;;;1.50;99.90;;;;;;5050584;28;20206;-74
2024/01/07 08:20:38;;;;;;;42.00;24.33;;;1.60;99.90;;;;;;5050723;28;20653;-73
2024/01/07 08:23:04;;;;;;;33.17;21.50;;;1.60;99.90;;;;;;5050837;28;20178;-74
2024/01/07 08:25:30;;;;;;;36.47;22.53;;;1.60;99.90;;;;;;5050193;28;20241;-73
2024/01/07 08:27:55;;;;;;;34.40;23.57;;;1.60;99.90;;;;;;5050345;28;20211;-73
2024/01/07 08:30:21;;;;;;;40.80;25.13;;;1.60;99.90;;;;;;5050727;28;20175;-73
2024/01/07 08:32:47;;;;;;;46.67;26.67;;;1.60;99.90;;;;;;5050512;28;20179;-72
2024/01/07 08:35:12;;;;;;;41.47;23.53;;;1.60;99.90;;;;;;5050659;28;20175;-73
2024/01/07 08:37:38;;;;;;;38.63;24.77;;;1.70;99.90;;;;;;5050261;28;20229;-73
2024/01/07 08:40:04;;;;;;;42.47;24.70;;;1.60;99.90;;;;;;5053444;28;20210;-73
2024/01/07 08:42:32;;;;;;;49.87;26.50;;;1.50;99.90;;;;;;5057911;28;20178;-73
2024/01/07 08:45:00;;;;;;;40.47;27.07;;;1.80;99.90;;;;;;5057549;28;20205;-73
2024/01/07 08:47:26;;;;;;;44.27;26.90;;;1.60;99.90;;;;;;5057328;28;20225;-73
2024/01/07 08:49:53;;;;;;;42.63;27.00;;;1.70;99.90;;;;;;5050473;28;20191;-72
2024/01/07 08:52:19;;;;;;;42.10;25.97;;;1.70;99.90;;;;;;5051896;28;20171;-72
2024/01/07 08:54:45;;;;;;;40.40;24.50;;;1.70;99.90;;;;;;5053529;28;20610;-73
2024/01/07 08:57:10;;;;;;;40.13;25.87;;;1.80;99.90;;;;;;5050548;28;20298;-72
2024/01/07 08:59:36;;;;;;;37.13;23.30;;;1.70;99.90;;;;;;5050205;28;20236;-73
2024/01/07 09:02:02;;;;;;;38.33;25.70;;;1.60;99.90;;;;;;5050330;28;20172;-72
2024/01/07 09:04:28;;;;;;;41.23;24.33;;;1.60;99.90;;;;;;5049977;28;20167;-72
2024/01/07 09:06:53;;;;;;;42.80;27.60;;;1.50;99.90;;;;;;5055235;28;20163;-72
2024/01/07 09:09:19;;;;;;;42.40;26.73;;;1.60;99.90;;;;;;5060266;28;20540;-73
2024/01/07 09:11:45;;;;;;;38.33;25.00;;;1.60;99.90;;;;;;5062155;28;20167;-73
2024/01/07 09:14:11;;;;;;;42.40;27.07;;;1.60;99.90;;;;;;5058922;28;20167;-73
2024/01/07 09:16:37;;;;;;;43.70;25.40;;;1.50;99.90;;;;;;5059199;28;20657;-73
2024/01/07 09:19:02;;;;;;;47.20;28.97;;;1.60;99.90;;;;;;5061427;28;20233;-74
2024/01/07 09:21:28;;;;;;;41.83;26.63;;;1.60;99.90;;;;;;5060898;28;20459;-73
2024/01/07 09:23:53;;;;;;;37.73;23.60;;;1.60;99.90;;;;;;5057131;28;20262;-74
2024/01/07 09:26:19;;;;;;;39.43;24.30;;;1.50;99.90;;;;;;5058072;28;20670;-74
2024/01/07 09:28:44;;;;;;;31.87;22.47;;;1.50;99.90;;;;;;5058716;28;20191;-72
2024/01/07 09:31:10;;;;;;;33.33;23.37;;;1.40;99.90;;;;;;5058115;28;20649;-74
2024/01/07 09:33:36;;;;;;;34.27;23.13;;;1.40;99.90;;;;;;5056991;28;20186;-73
2024/01/07 09:36:01;;;;;;;35.00;22.83;;;1.40;99.90;;;;;;5055729;28;20177;-73
2024/01/07 09:38:27;;;;;;;38.63;24.57;;;1.40;99.90;;;;;;5056154;28;20719;-73
2024/01/07 09:40:55;;;;;;;33.23;22.17;;;1.40;99.90;;;;;;5054179;28;20221;-73
2024/01/07 09:43:21;;;;;;;36.97;23.53;;;1.30;99.90;;;;;;5053759;28;20343;-73
2024/01/07 09:45:50;;;;;;;37.40;24.07;;;1.30;99.90;;;;;;5053772;28;20203;-73
2024/01/07 09:48:16;;;;;;;32.00;20.90;;;1.30;99.90;;;;;;5054007;28;20218;-74
2024/01/07 09:50:42;;;;;;;32.63;22.50;;;1.30;99.90;;;;;;5054422;28;20221;-73
2024/01/07 09:53:14;;;;;;;35.53;21.60;;;1.40;99.90;;;;;;5055124;28;20626;-73
2024/01/07 09:56:06;;;;;;;26.93;16.73;;;1.40;99.90;;;;;;5053712;28;20170;-75
2024/01/07 09:58:32;;;;;;;24.97;18.07;;;1.40;99.90;;;;;;5054013;28;20206;-73
2024/01/07 10:00:57;;;;;;;24.73;18.97;;;1.30;99.90;;;;;;5054949;28;20357;-73
2024/01/07 10:03:24;;;;;;;24.83;18.30;;;1.40;99.90;;;;;;5055951;28;20167;-74
2024/01/07 10:05:50;;;;;;;24.23;18.73;;;1.40;99.90;;;;;;5054877;28;20202;-74
2024/01/07 10:08:15;;;;;;;22.67;16.67;;;1.40;99.90;;;;;;5054327;28;20209;-74
2024/01/07 10:10:41;;;;;;;18.57;15.37;;;1.40;99.90;;;;;;5055587;28;20175;-73
2024/01/07 10:13:08;;;;;;;21.83;16.20;;;1.40;99.90;;;;;;5056137;28;20178;-73
2024/01/07 10:15:34;;;;;;;18.27;14.57;;;1.40;99.90;;;;;;5057029;28;20170;-73
2024/01/07 10:18:07;;;;;;;20.17;14.87;;;1.50;99.90;;;;;;5056109;28;20261;-74
2024/01/07 10:20:34;;;;;;;19.40;15.27;;;1.50;99.90;;;;;;5052997;28;20222;-74
2024/01/07 10:23:00;;;;;;;19.23;15.50;;;1.50;99.90;;;;;;5052100;28;20649;-73
2024/01/07 10:25:25;;;;;;;18.07;15.53;;;1.60;99.90;;;;;;5052411;28;20218;-73
2024/01/07 10:27:52;;;;;;;18.13;14.33;;;1.50;99.90;;;;;;5052314;28;20187;-74
2024/01/07 10:30:17;;;;;;;19.80;15.40;;;1.60;99.90;;;;;;5052572;28;20539;-73
2024/01/07 10:32:43;;;;;;;18.13;15.27;;;1.60;99.90;;;;;;5052271;28;20167;-74
2024/01/07 10:35:18;;;;;;;21.40;16.07;;;1.50;99.90;;;;;;5052295;28;20590;-73
2024/01/07 10:37:44;;;;;;;19.17;15.93;;;1.50;99.90;;;;;;5051326;28;20241;-74
2024/01/07 10:40:11;;;;;;;21.87;16.27;;;1.40;99.90;;;;;;5052242;28;20185;-73
2024/01/07 10:42:39;;;;;;;23.87;16.43;;;1.40;99.90;;;;;;5054718;28;20174;-74
2024/01/07 10:45:05;;;;;;;23.77;17.37;;;1.50;99.90;;;;;;5055420;28;20681;-73
2024/01/07 10:47:31;;;;;;;26.03;17.37;;;1.40;99.90;;;;;;5055519;28;20274;-74
2024/01/07 10:49:58;;;;;;;19.13;16.60;;;1.40;99.90;;;;;;5056321;28;20243;-74
2024/01/07 10:52:27;;;;;;;19.10;16.60;;;1.40;99.90;;;;;;5053772;28;20175;-74
2024/01/07 10:54:56;;;;;;;25.77;18.13;;;1.40;99.90;;;;;;5052793;28;20179;-74
2024/01/07 10:57:47;;;;;;;25.60;17.47;;;1.40;99.90;;;;;;5052191;28;20278;-73
2024/01/07 11:00:20;;;;;;;21.63;17.30;;;1.30;99.90;;;;;;5053282;28;20171;-74
2024/01/07 11:03:14;;;;;;;23.90;17.23;;;1.20;99.90;;;;;;5054064;28;20171;-73
2024/01/07 11:05:48;;;;;;;27.30;18.07;;;1.30;99.90;;;;;;5053320;28;20236;-74
2024/01/07 11:08:37;;;;;;;24.37;17.90;;;1.20;99.90;;;;;;5051475;28;20186;-73
2024/01/07 11:11:26;;;;;;;24.10;17.00;;;1.30;99.90;;;;;;5051720;28;20198;-73
2024/01/07 11:13:52;;;;;;;26.97;19.83;;;1.20;99.90;;;;;;5051356;28;20249;-73
2024/01/07 11:16:40;;;;;;;25.37;19.97;;;1.30;99.90;;;;;;5051564;28;20601;-73
2024/01/07 11:19:05;;;;;;;23.47;18.13;;;1.30;99.90;;;;;;5050640;28;20339;-74
2024/01/07 11:21:31;;;;;;;22.43;15.30;;;1.30;99.90;;;;;;5051355;28;20257;-73
2024/01/07 11:23:56;;;;;;;25.80;18.43;;;1.30;99.90;;;;;;5051630;28;20189;-73
2024/01/07 11:26:22;;;;;;;25.53;18.37;;;1.30;99.90;;;;;;5051543;28;20202;-73
2024/01/07 11:28:54;;;;;;;21.03;16.60;;;1.40;99.90;;;;;;5051441;28;20204;-73
2024/01/07 11:31:40;;;;;;;20.07;15.37;;;1.30;99.90;;;;;;5050765;28;20175;-73
2024/01/07 11:34:09;;;;;;;17.70;15.23;;;1.30;99.90;;;;;;5051380;28;20237;-74
2024/01/07 11:36:36;;;;;;;21.23;16.37;;;1.40;99.90;;;;;;5051062;28;20175;-73
2024/01/07 11:39:05;;;;;;;18.33;14.67;;;1.40;99.90;;;;;;5051427;28;20194;-73
2024/01/07 11:41:33;;;;;;;20.30;14.87;;;1.50;99.90;;;;;;5051532;28;20220;-74
2024/01/07 11:44:00;;;;;;;19.83;14.90;;;1.40;99.90;;;;;;5051495;28;20171;-72
2024/01/07 11:46:28;;;;;;;25.53;17.03;;;1.50;99.90;;;;;;5051155;28;20209;-73
2024/01/07 11:48:58;;;;;;;21.57;14.97;;;1.30;99.90;;;;;;5051050;28;20240;-72
2024/01/07 11:51:28;;;;;;;16.07;13.00;;;1.20;99.90;;;;;;5031223;28;20170;-73
2024/01/07 11:53:54;;;;;;;18.03;13.37;;;1.20;99.90;;;;;;5036221;28;20198;-74
2024/01/07 11:56:20;;;;;;;12.13;10.93;;;1.30;99.90;;;;;;5054818;28;20240;-73
2024/01/07 11:58:46;;;;;;;17.23;12.90;;;1.40;99.90;;;;;;5054175;28;20191;-74
2024/01/07 12:01:14;;;;;;;16.33;13.93;;;1.40;99.90;;;;;;5054056;28;20167;-75
2024/01/07 12:03:41;;;;;;;13.77;10.70;;;1.30;99.90;;;;;;5053721;28;20221;-74
2024/01/07 12:06:07;;;;;;;16.93;11.23;;;1.50;99.90;;;;;;5054509;28;20237;-75
2024/01/07 12:08:32;;;;;;;13.53;12.13;;;1.50;99.90;;;;;;5053604;28;20563;-74
2024/01/07 12:10:59;;;;;;;15.37;11.97;;;1.50;99.90;;;;;;5054066;28;20167;-74
2024/01/07 12:13:25;;;;;;;14.80;12.47;;;1.50;99.90;;;;;;5050638;28;20256;-74
2024/01/07 12:15:51;;;;;;;13.57;12.17;;;1.30;1.00;;;;;;5050967;28;20320;-74
2024/01/07 12:18:17;;;;;;;15.43;11.53;;;1.50;1.00;;;;;;5050965;28;20293;-74
2024/01/07 12:20:54;;;;;;;13.50;11.83;;;1.50;99.90;;;;;;5050962;28;20175;-74
2024/01/07 12:23:19;;;;;;;13.43;10.40;;;1.40;99.90;;;;;;5055267;28;20205;-73
2024/01/07 12:25:45;;;;;;;12.13;10.93;;;1.40;99.90;;;;;;5050620;28;20206;-74
2024/01/07 12:28:10;;;;;;;12.77;11.47;;;1.40;99.90;;;;;;5050492;28;20190;-74
2024/01/07 12:30:38;;;;;;;14.57;10.70;;;1.50;99.90;;;;;;5050703;28;20171;-74
2024/01/07 12:33:05;;;;;;;11.53;10.37;;;1.50;99.90;;;;;;5050700;28;20213;-74